Time;durP1;ratioP1;P1;durP2;ratioP2;P2;SDS_P1;SDS_P2;PMS_P1;PMS_P2;Temp;Humidity;BMP_temperature;BMP_pressure;BME280_temperature;BME280_humidity;BME280_pressure;Samples;Min_cycle;Max_cycle;Signal;HPM_P1;HPM_P2
2021/09/02 00:02:20;;;;;;;7.15;5.20;;;;;;;13.99;77.88;98422.81;5126670;27;20034;-63
2021/09/02 00:05:06;;;;;;;7.03;5.32;;;;;;;13.95;77.37;98423.91;5125432;28;20027;-63
2021/09/02 00:07:52;;;;;;;7.38;5.57;;;;;;;13.99;77.87;98428.03;5124700;28;20204;-63
2021/09/02 00:10:38;;;;;;;7.32;5.53;;;;;;;13.89;77.60;98429.47;5123977;28;20022;-63
2021/09/02 00:13:24;;;;;;;7.10;5.63;;;;;;;13.94;78.43;98424.88;5125118;28;20208;-62
2021/09/02 00:16:10;;;;;;;6.30;5.15;;;;;;;13.84;76.63;98410.66;5125283;28;20019;-62
2021/09/02 00:18:56;;;;;;;7.28;5.22;;;;;;;14.02;77.11;98425.25;5122652;27;20035;-63
2021/09/02 00:21:42;;;;;;;5.70;4.68;;;;;;;13.95;76.20;98423.91;5115921;28;20357;-61
2021/09/02 00:24:28;;;;;;;9.05;4.80;;;;;;;14.01;76.75;98434.00;5124522;28;20050;-62
2021/09/02 00:27:13;;;;;;;6.40;4.72;;;;;;;14.02;76.90;98429.63;5123631;28;20209;-63
2021/09/02 00:29:59;;;;;;;5.55;4.57;;;;;;;13.82;77.26;98431.56;5124713;28;20042;-63
2021/09/02 00:32:45;;;;;;;7.30;4.47;;;;;;;13.97;76.34;98419.47;5123785;28;20024;-63
2021/09/02 00:35:31;;;;;;;6.53;4.07;;;;;;;14.06;76.68;98424.16;5123189;28;20034;-64
2021/09/02 00:38:17;;;;;;;5.50;4.05;;;;;;;14.07;75.69;98423.25;5124153;28;20032;-63
2021/09/02 00:41:05;;;;;;;5.38;4.40;;;;;;;14.13;75.85;98422.06;5124640;28;20036;-63
2021/09/02 00:43:51;;;;;;;7.85;4.10;;;;;;;14.15;75.89;98420.19;5124745;28;20028;-63
2021/09/02 00:46:37;;;;;;;6.50;4.18;;;;;;;14.08;76.78;98416.25;5124081;28;20124;-63
2021/09/02 00:49:22;;;;;;;6.25;4.30;;;;;;;14.06;76.17;98416.34;5124911;27;20028;-64
2021/09/02 00:52:12;;;;;;;6.05;4.22;;;;;;;14.15;76.06;98420.19;5124376;28;20020;-63
2021/09/02 00:55:05;;;;;;;7.70;4.15;;;;;;;13.86;76.69;98357.59;5123592;28;20256;-63
2021/09/02 00:57:51;;;;;;;6.80;4.07;;;;;;;14.10;76.99;98411.81;5122841;28;20027;-62
2021/09/02 01:00:37;;;;;;;5.75;4.07;;;;;;;14.09;77.01;98410.13;5122116;28;20349;-64
2021/09/02 01:03:23;;;;;;;5.55;3.78;;;;;;;14.10;76.49;98411.81;5122405;28;20028;-64
2021/09/02 01:06:09;;;;;;;5.00;4.00;;;;;;;14.07;77.26;98410.22;5122660;28;20055;-64
2021/09/02 01:08:56;;;;;;;4.85;4.13;;;;;;;14.05;77.37;98411.22;5123486;28;20080;-62
2021/09/02 01:11:41;;;;;;;8.80;4.53;;;;;;;14.07;77.38;98404.19;5123169;28;20090;-63
2021/09/02 01:14:27;;;;;;;6.45;4.40;;;;;;;14.11;76.87;98413.50;5107376;28;20395;-63
2021/09/02 01:17:13;;;;;;;6.13;4.10;;;;;;;14.14;76.79;98411.56;5123866;28;20023;-63
2021/09/02 01:19:59;;;;;;;5.72;4.20;;;;;;;14.09;76.01;98410.97;5123820;28;20215;-65
2021/09/02 01:22:47;;;;;;;5.45;4.90;;;;;;;13.94;76.38;98397.06;5123479;28;20384;-62
2021/09/02 01:25:36;;;;;;;8.82;4.60;;;;;;;14.13;76.85;98416.84;5124017;28;20023;-63
2021/09/02 01:28:22;;;;;;;7.07;4.82;;;;;;;14.17;77.33;98426.16;5107686;28;20265;-63
2021/09/02 01:31:09;;;;;;;7.63;4.25;;;;;;;14.13;75.32;98422.06;5124049;28;20039;-64
2021/09/02 01:33:55;;;;;;;5.57;4.18;;;;;;;14.18;76.03;98425.25;5123024;28;20250;-63
2021/09/02 01:36:41;;;;;;;4.70;4.07;;;;;;;14.21;76.54;98434.63;5121376;28;20348;-64
2021/09/02 01:39:27;;;;;;;5.05;4.07;;;;;;;14.18;76.34;98434.81;5122261;28;20039;-63
2021/09/02 01:42:13;;;;;;;8.27;4.97;;;;;;;14.14;76.35;98437.59;5123512;28;20343;-62
2021/09/02 01:44:59;;;;;;;7.10;4.95;;;;;;;14.15;77.14;98436.69;5122862;28;20031;-62
2021/09/02 01:47:46;;;;;;;6.40;4.68;;;;;;;14.00;77.69;98426.28;5122324;28;20276;-62
2021/09/02 01:50:34;;;;;;;4.93;4.43;;;;;;;14.11;76.33;98440.38;5121812;28;20071;-62
2021/09/02 01:53:20;;;;;;;6.43;4.55;;;;;;;14.17;76.50;98439.19;5122048;28;20022;-62
2021/09/02 01:56:06;;;;;;;7.05;4.82;;;;;;;14.07;76.15;98438.88;5122438;28;20079;-62
2021/09/02 01:58:51;;;;;;;8.10;5.03;;;;;;;14.01;76.43;98426.19;5118066;27;20313;-61
2021/09/02 02:01:37;;;;;;;4.78;4.28;;;;;;;14.05;77.07;98434.66;5113824;28;20019;-62
2021/09/02 02:04:23;;;;;;;7.05;4.60;;;;;;;14.09;77.03;98433.56;5123160;28;20072;-63
2021/09/02 02:07:09;;;;;;;6.38;4.55;;;;;;;14.06;76.75;98441.56;5122834;28;20269;-63
2021/09/02 02:09:55;;;;;;;7.07;4.70;;;;;;;14.09;77.54;98438.78;5121052;28;20028;-63
2021/09/02 02:12:41;;;;;;;4.85;4.38;;;;;;;14.12;76.07;98447.25;5117454;28;20027;-64
2021/09/02 02:15:28;;;;;;;6.38;4.85;;;;;;;14.10;76.49;98445.66;5122918;28;20098;-65
2021/09/02 02:18:14;;;;;;;8.68;4.70;;;;;;;14.08;77.67;98444.91;5122120;28;20090;-65
2021/09/02 02:21:00;;;;;;;5.18;4.45;;;;;;;14.00;76.58;98441.91;5120844;28;20031;-65
2021/09/02 02:23:46;;;;;;;7.30;4.68;;;;;;;14.04;77.23;98444.25;5100462;28;20031;-65
2021/09/02 02:26:32;;;;;;;5.38;4.32;;;;;;;14.06;75.63;98446.75;5117591;28;20092;-65
2021/09/02 02:29:17;;;;;;;5.28;4.40;;;;;;;14.04;75.64;98446.00;5121606;28;20043;-63
2021/09/02 02:32:04;;;;;;;5.40;4.43;;;;;;;14.15;76.50;98461.84;5118474;28;20055;-63
2021/09/02 02:34:50;;;;;;;6.85;3.83;;;;;;;14.14;75.42;98450.59;5120872;28;20034;-63
2021/09/02 02:37:36;;;;;;;9.35;4.25;;;;;;;14.01;76.11;98459.19;5122001;28;20316;-64
2021/09/02 02:40:22;;;;;;;5.60;4.55;;;;;;;14.03;76.11;98458.19;5119537;28;20088;-65
2021/09/02 02:43:08;;;;;;;4.47;3.95;;;;;;;13.99;76.46;98454.06;5120594;28;20338;-65
2021/09/02 02:45:57;;;;;;;5.53;4.15;;;;;;;13.98;75.97;98457.63;5118917;28;20020;-66
2021/09/02 02:48:43;;;;;;;5.00;3.80;;;;;;;14.03;76.06;98460.78;5121735;28;20049;-65
2021/09/02 02:51:29;;;;;;;8.55;3.95;;;;;;;14.02;76.40;98446.06;5107483;28;20033;-65
2021/09/02 02:54:15;;;;;;;4.28;3.88;;;;;;;14.01;76.79;98449.63;5121159;28;20023;-65
2021/09/02 02:57:01;;;;;;;4.88;3.85;;;;;;;14.00;75.33;98460.97;5122087;28;20223;-65
2021/09/02 02:59:46;;;;;;;6.35;4.47;;;;;;;13.88;75.91;98454.69;5120741;28;20028;-65
2021/09/02 03:02:33;;;;;;;5.47;3.92;;;;;;;13.97;75.50;98456.75;5122119;28;20034;-65
2021/09/02 03:05:19;;;;;;;5.07;4.10;;;;;;;14.00;76.08;98458.34;5121374;28;20032;-65
2021/09/02 03:08:05;;;;;;;5.72;3.92;;;;;;;14.02;75.91;98458.28;5121781;28;20037;-64
2021/09/02 03:10:51;;;;;;;4.65;4.05;;;;;;;14.04;75.92;98465.06;5123526;28;20186;-64
2021/09/02 03:13:37;;;;;;;4.63;4.20;;;;;;;14.05;75.37;98471.97;5101573;28;20198;-64
2021/09/02 03:16:23;;;;;;;6.13;4.57;;;;;;;13.93;75.41;98472.63;5109758;28;20031;-64
2021/09/02 03:19:08;;;;;;;6.47;4.30;;;;;;;14.00;75.95;98471.38;5121043;28;20023;-64
2021/09/02 03:21:55;;;;;;;5.07;4.30;;;;;;;14.00;76.58;98470.53;5110052;28;20058;-64
2021/09/02 03:24:41;;;;;;;5.55;4.13;;;;;;;13.96;76.90;98473.28;5121518;28;20347;-63
2021/09/02 03:27:27;;;;;;;6.28;4.15;;;;;;;14.04;76.94;98477.22;5121987;28;20272;-64
2021/09/02 03:30:13;;;;;;;6.22;4.35;;;;;;;14.03;76.65;98475.56;5121817;28;20012;-64
2021/09/02 03:32:58;;;;;;;6.78;4.50;;;;;;;14.09;76.32;98477.81;5120358;28;20024;-64
2021/09/02 03:35:44;;;;;;;7.78;4.32;;;;;;;14.05;76.13;98486.72;5120952;28;20072;-63
2021/09/02 03:38:30;;;;;;;6.18;3.88;;;;;;;14.11;75.45;98494.22;5123810;28;20054;-64
2021/09/02 03:41:16;;;;;;;5.80;4.10;;;;;;;14.05;75.55;98491.94;5124549;28;20036;-63
2021/09/02 03:44:02;;;;;;;6.07;4.38;;;;;;;14.07;76.61;98485.72;5125852;28;20054;-64
2021/09/02 03:46:49;;;;;;;5.07;3.97;;;;;;;14.11;76.61;98486.41;5123377;28;20288;-64
2021/09/02 03:49:35;;;;;;;4.85;3.65;;;;;;;14.04;76.02;98488.50;5125183;28;20031;-63
2021/09/02 03:52:21;;;;;;;6.68;3.67;;;;;;;14.07;75.96;98493.53;5120202;28;20024;-64
2021/09/02 03:55:07;;;;;;;7.13;3.83;;;;;;;14.01;76.07;98487.81;5123600;27;20035;-64
2021/09/02 03:57:53;;;;;;;5.07;3.60;;;;;;;14.03;75.56;98488.59;5123343;28;20028;-64
2021/09/02 04:00:39;;;;;;;4.18;3.40;;;;;;;14.09;75.62;98489.06;5120950;28;20027;-64
2021/09/02 04:03:25;;;;;;;6.00;3.28;;;;;;;14.09;75.05;98485.63;5123607;28;20339;-64
2021/09/02 04:06:11;;;;;;;5.32;4.00;;;;;;;14.04;74.94;98485.03;5125229;28;20042;-64
2021/09/02 04:08:57;;;;;;;4.25;3.72;;;;;;;14.08;75.41;98483.94;5123941;28;20022;-64
2021/09/02 04:11:43;;;;;;;5.82;3.28;;;;;;;14.13;74.80;98489.75;5125068;28;20368;-64
2021/09/02 04:14:29;;;;;;;7.18;3.80;;;;;;;14.12;73.89;98488.94;5118409;28;20315;-64
2021/09/02 04:17:15;;;;;;;6.20;3.30;;;;;;;14.17;74.65;98487.84;5119623;28;20027;-64
2021/09/02 04:20:00;;;;;;;5.85;3.70;;;;;;;14.13;74.59;98494.97;5124268;28;20380;-64
2021/09/02 04:22:46;;;;;;;5.53;3.78;;;;;;;14.21;75.26;98491.91;5123439;28;20085;-64
2021/09/02 04:25:32;;;;;;;6.30;3.65;;;;;;;14.22;74.71;98491.00;5123102;28;20027;-64
2021/09/02 04:28:18;;;;;;;7.47;3.45;;;;;;;14.24;74.24;98489.16;5124479;28;20162;-64
2021/09/02 04:31:04;;;;;;;4.93;3.28;;;;;;;14.23;74.53;98483.09;5122612;28;20080;-64
2021/09/02 04:33:50;;;;;;;7.22;3.35;;;;;;;14.27;73.79;98482.00;5122467;28;20070;-63
2021/09/02 04:36:35;;;;;;;8.23;3.28;;;;;;;14.30;74.11;98488.81;5123640;28;20030;-63
2021/09/02 04:39:21;;;;;;;4.80;3.65;;;;;;;14.31;75.02;98496.53;5123316;28;20099;-63
2021/09/02 04:42:07;;;;;;;7.15;4.00;;;;;;;14.12;74.20;98503.69;5123361;28;20138;-63
2021/09/02 04:44:53;;;;;;;5.68;3.80;;;;;;;14.20;73.34;98506.72;5122083;28;20072;-64
2021/09/02 04:47:40;;;;;;;7.07;3.60;;;;;;;14.23;73.36;98509.13;5091708;28;20354;-64
2021/09/02 04:50:26;;;;;;;5.15;3.55;;;;;;;14.26;73.30;98508.97;5107153;28;20031;-64
2021/09/02 04:53:13;;;;;;;8.20;4.18;;;;;;;14.12;73.07;98509.75;5122000;28;20027;-64
2021/09/02 04:55:58;;;;;;;7.53;4.10;;;;;;;14.12;73.12;98507.16;5122318;28;20108;-65
2021/09/02 04:58:44;;;;;;;7.95;4.38;;;;;;;14.29;73.22;98502.75;5123169;28;20024;-65
2021/09/02 05:01:30;;;;;;;6.30;4.22;;;;;;;14.29;73.26;98505.34;5123820;28;20220;-65
2021/09/02 05:04:16;;;;;;;6.57;3.85;;;;;;;14.26;73.92;98503.75;5123329;28;20031;-65
2021/09/02 05:07:02;;;;;;;7.40;4.22;;;;;;;14.29;75.00;98501.00;5108203;28;20031;-65
2021/09/02 05:09:48;;;;;;;5.30;3.10;;;;;;;14.36;72.96;98508.47;5121802;28;20016;-63
2021/09/02 05:12:34;;;;;;;7.10;3.03;;;;;;;14.41;73.41;98514.25;5114164;28;20024;-64
2021/09/02 05:15:20;;;;;;;5.38;3.42;;;;;;;14.44;73.05;98514.91;5123060;28;20347;-64
2021/09/02 05:18:06;;;;;;;5.50;3.13;;;;;;;14.36;73.07;98505.88;5110040;28;20343;-63
2021/09/02 05:20:52;;;;;;;4.22;3.40;;;;;;;14.43;72.29;98509.81;5123058;28;20209;-66
2021/09/02 05:23:38;;;;;;;3.85;3.08;;;;;;;14.23;72.14;98480.50;5122765;28;20031;-62
2021/09/02 05:26:24;;;;;;;6.63;3.30;;;;;;;14.48;72.70;98510.38;5122357;28;20077;-63
2021/09/02 05:29:10;;;;;;;5.28;2.90;;;;;;;14.43;72.05;98508.03;5123136;28;20027;-63
2021/09/02 05:31:56;;;;;;;4.72;3.20;;;;;;;14.45;72.38;98520.97;5122766;28;20019;-63
2021/09/02 05:34:41;;;;;;;4.85;3.15;;;;;;;14.44;71.98;98517.53;5122575;28;20019;-63
2021/09/02 05:37:27;;;;;;;4.60;2.95;;;;;;;14.45;72.26;98513.16;5121395;28;20332;-62
2021/09/02 05:40:13;;;;;;;5.43;2.80;;;;;;;14.57;72.30;98516.84;5122866;28;20082;-63
2021/09/02 05:42:59;;;;;;;5.57;3.10;;;;;;;14.55;71.69;98522.16;5107255;28;20059;-63
2021/09/02 05:45:45;;;;;;;5.20;3.15;;;;;;;14.55;71.11;98524.75;5121106;28;20051;-63
2021/09/02 05:48:31;;;;;;;5.28;2.83;;;;;;;14.51;72.02;98523.25;5121009;28;20026;-63
2021/09/02 05:51:17;;;;;;;3.60;3.10;;;;;;;14.49;71.96;98527.69;5121412;28;20062;-63
2021/09/02 05:54:03;;;;;;;3.40;2.85;;;;;;;14.46;71.31;98522.66;5122397;28;20034;-63
2021/09/02 05:56:49;;;;;;;5.65;2.90;;;;;;;14.50;72.44;98526.75;5122003;28;20083;-63
2021/09/02 05:59:35;;;;;;;6.93;2.60;;;;;;;14.50;73.32;98529.38;5131475;27;20328;-63
2021/09/02 06:02:21;;;;;;;3.50;3.05;;;;;;;14.40;72.60;98529.03;5119381;28;20356;-63
2021/09/02 06:05:07;;;;;;;5.80;3.00;;;;;;;14.53;72.47;98531.78;5121851;28;20034;-63
2021/09/02 06:07:54;;;;;;;5.68;2.78;;;;;;;14.53;72.70;98530.97;5121424;28;20068;-63
2021/09/02 06:10:39;;;;;;;6.97;3.55;;;;;;;14.61;71.75;98532.22;5120946;28;20053;-63
2021/09/02 06:13:25;;;;;;;5.90;2.95;;;;;;;14.62;71.37;98538.28;5121018;28;20336;-63
2021/09/02 06:16:11;;;;;;;5.60;2.72;;;;;;;14.59;70.77;98541.88;5121694;28;20054;-63
2021/09/02 06:18:57;;;;;;;6.50;3.17;;;;;;;14.55;71.57;98548.19;5121745;28;20091;-64
2021/09/02 06:21:43;;;;;;;4.85;2.75;;;;;;;14.57;71.10;98558.53;5120978;28;20023;-63
2021/09/02 06:24:29;;;;;;;2.55;2.35;;;;;;;14.48;69.93;98541.66;5122339;28;20027;-63
2021/09/02 06:27:15;;;;;;;5.22;2.78;;;;;;;14.64;71.90;98562.50;5121983;28;20220;-64
2021/09/02 06:30:01;;;;;;;4.70;2.70;;;;;;;14.77;70.45;98558.25;5103054;28;20032;-63
2021/09/02 06:32:47;;;;;;;6.32;2.58;;;;;;;14.80;70.72;98559.84;5103635;28;20019;-63
2021/09/02 06:35:33;;;;;;;4.72;2.20;;;;;;;14.89;70.55;98564.53;5106011;28;20395;-63
2021/09/02 06:38:18;;;;;;;4.85;2.67;;;;;;;14.80;70.05;98562.47;5121179;28;20038;-63
2021/09/02 06:41:04;;;;;;;4.28;2.25;;;;;;;14.92;69.96;98560.91;5105963;28;20376;-63
2021/09/02 06:43:50;;;;;;;4.47;2.47;;;;;;;14.90;70.06;98568.81;5104551;28;20541;-63
2021/09/02 06:46:36;;;;;;;4.28;2.53;;;;;;;14.91;70.18;98561.88;5120257;28;20043;-63
2021/09/02 06:49:22;;;;;;;4.63;2.55;;;;;;;14.89;69.10;98551.50;5110501;28;20036;-64
2021/09/02 06:52:08;;;;;;;4.43;2.63;;;;;;;14.94;69.84;98557.28;5117368;28;20084;-63
2021/09/02 06:54:53;;;;;;;4.47;2.25;;;;;;;15.02;69.66;98562.91;5114032;28;20095;-64
2021/09/02 06:57:40;;;;;;;4.28;2.33;;;;;;;15.11;69.87;98573.75;5107629;28;20087;-63
2021/09/02 07:00:26;;;;;;;4.72;2.55;;;;;;;15.16;69.53;98580.38;5120546;28;20071;-63
2021/09/02 07:03:11;;;;;;;5.80;2.25;;;;;;;15.18;69.27;98578.50;5122151;28;20031;-62
2021/09/02 07:05:57;;;;;;;4.82;2.50;;;;;;;15.16;68.10;98582.13;5121062;28;20325;-63
2021/09/02 07:08:43;;;;;;;3.08;2.45;;;;;;;15.13;68.94;98587.53;5121879;28;20023;-63
2021/09/02 07:11:29;;;;;;;3.35;2.60;;;;;;;14.96;68.59;98583.28;5123207;28;20080;-64
2021/09/02 07:14:15;;;;;;;2.63;2.33;;;;;;;14.97;69.11;98546.69;5123243;27;20019;-63
2021/09/02 07:17:01;;;;;;;3.67;2.47;;;;;;;15.33;68.64;98595.03;5124732;27;20043;-63
2021/09/02 07:19:47;;;;;;;3.20;2.30;;;;;;;15.40;68.00;98592.06;5118327;27;20038;-64
2021/09/02 07:22:33;;;;;;;4.80;2.58;;;;;;;15.36;67.49;98592.25;5115521;27;20358;-64
2021/09/02 07:25:19;;;;;;;3.08;2.33;;;;;;;15.35;67.50;98592.34;5124739;28;20295;-63
2021/09/02 07:28:05;;;;;;;4.38;2.95;;;;;;;15.36;68.27;98599.22;5125416;28;20372;-64
2021/09/02 07:30:50;;;;;;;5.22;2.42;;;;;;;15.37;66.09;98598.28;5125966;28;20030;-64
2021/09/02 07:33:36;;;;;;;5.78;2.33;;;;;;;15.41;67.31;98604.19;5123485;28;20048;-64
2021/09/02 07:36:22;;;;;;;4.45;2.42;;;;;;;15.33;68.01;98605.47;5124174;28;20070;-64
2021/09/02 07:39:08;;;;;;;3.25;2.00;;;;;;;15.33;67.44;98602.00;5124653;28;20072;-64
2021/09/02 07:41:54;;;;;;;4.13;2.30;;;;;;;15.26;67.21;98608.50;5125011;28;20061;-63
2021/09/02 07:44:40;;;;;;;3.65;1.80;;;;;;;15.21;66.77;98614.00;5125035;27;20020;-64
2021/09/02 07:47:26;;;;;;;2.00;1.70;;;;;;;15.19;68.12;98616.72;5124345;28;20073;-63
2021/09/02 07:50:12;;;;;;;3.58;2.00;;;;;;;15.22;67.25;98613.09;5122336;28;20031;-63
2021/09/02 07:52:58;;;;;;;2.97;1.92;;;;;;;15.22;66.26;98610.47;5123243;27;20024;-64
2021/09/02 07:55:44;;;;;;;2.63;2.10;;;;;;;15.27;67.20;98612.81;5110557;28;20032;-63
2021/09/02 07:58:30;;;;;;;7.30;1.92;;;;;;;15.19;66.62;98613.25;5122134;28;20031;-62
2021/09/02 08:01:18;;;;;;;2.75;2.30;;;;;;;15.17;66.09;98617.72;5123993;28;20024;-62
2021/09/02 08:04:04;;;;;;;5.45;2.35;;;;;;;15.10;65.71;98611.19;5122220;28;20043;-64
2021/09/02 08:06:49;;;;;;;4.47;1.90;;;;;;;15.11;65.54;98605.88;5124070;28;20277;-62
2021/09/02 08:09:35;;;;;;;3.58;2.22;;;;;;;15.22;65.83;98610.47;5109145;28;20083;-63
2021/09/02 08:12:21;;;;;;;3.83;1.77;;;;;;;15.30;65.71;98608.25;5124764;28;20091;-63
2021/09/02 08:15:08;;;;;;;2.97;1.77;;;;;;;15.28;65.41;98609.28;5114834;28;20253;-63
2021/09/02 08:17:58;;;;;;;5.78;2.17;;;;;;;15.32;64.62;98605.53;5122027;28;20039;-64
2021/09/02 08:20:44;;;;;;;2.70;1.95;;;;;;;15.33;65.47;98610.69;5107059;27;20035;-63
2021/09/02 08:23:30;;;;;;;4.45;2.13;;;;;;;15.34;65.66;98608.91;5110832;28;20057;-62
2021/09/02 08:26:16;;;;;;;5.05;2.30;;;;;;;15.45;64.97;98611.72;5122858;28;20381;-63
2021/09/02 08:29:02;;;;;;;3.92;2.30;;;;;;;15.59;64.43;98597.00;5107418;28;20015;-64
2021/09/02 08:31:48;;;;;;;3.45;1.85;;;;;;;15.86;63.35;98591.94;5116170;28;20035;-63
2021/09/02 08:34:33;;;;;;;3.45;2.03;;;;;;;16.07;63.50;98588.94;5123117;28;20027;-62
2021/09/02 08:37:20;;;;;;;3.80;2.00;;;;;;;16.09;63.05;98585.31;5110092;28;20034;-64
2021/09/02 08:40:07;;;;;;;2.10;1.70;;;;;;;16.05;62.33;98591.66;5123361;28;20201;-63
2021/09/02 08:42:54;;;;;;;2.85;2.03;;;;;;;15.99;63.45;98578.97;5113627;28;20289;-63
2021/09/02 08:45:40;;;;;;;5.13;2.05;;;;;;;15.92;62.37;98586.34;5107512;28;20074;-63
2021/09/02 08:48:27;;;;;;;3.70;2.20;;;;;;;15.94;61.97;98589.69;5114706;28;20220;-63
2021/09/02 08:51:14;;;;;;;4.50;2.13;;;;;;;15.93;63.48;98595.00;5121681;28;20024;-64
2021/09/02 08:54:00;;;;;;;5.25;2.50;;;;;;;15.87;63.74;98601.44;5122735;28;20269;-63
2021/09/02 08:56:46;;;;;;;3.58;2.20;;;;;;;16.05;62.82;98600.31;5124129;28;20060;-63
2021/09/02 08:59:32;;;;;;;7.72;2.13;;;;;;;16.03;62.33;98596.97;5122513;28;20312;-64
2021/09/02 09:02:26;;;;;;;6.80;2.05;;;;;;;15.77;60.95;98602.91;5123425;28;20043;-66
2021/09/02 09:05:17;;;;;;;3.78;2.10;;;;;;;15.56;62.13;98545.84;5123030;27;20023;-62
2021/09/02 09:08:11;;;;;;;3.20;2.22;;;;;;;15.64;62.81;98543.59;5122472;28;20324;-63
2021/09/02 09:11:12;;;;;;;3.33;1.95;;;;;;;15.94;60.87;98597.53;5119770;28;20231;-63
2021/09/02 09:14:05;;;;;;;2.45;1.65;;;;;;;15.85;58.99;98595.50;5121652;27;20024;-64
2021/09/02 09:16:57;;;;;;;3.03;2.00;;;;;;;15.41;58.52;98525.91;5119304;27;20034;-65
2021/09/02 09:19:50;;;;;;;3.00;1.60;;;;;;;15.90;59.12;98585.59;5107279;27;20086;-63
2021/09/02 09:22:48;;;;;;;2.50;1.70;;;;;;;15.83;60.03;98540.75;5120581;28;20324;-61
2021/09/02 09:25:34;;;;;;;4.13;1.90;;;;;;;16.20;60.34;98582.00;5105613;28;20024;-63
2021/09/02 09:28:32;;;;;;;3.25;2.13;;;;;;;16.33;60.07;98575.09;5121890;28;20027;-64
2021/09/02 09:31:33;;;;;;;2.50;1.42;;;;;;;16.01;55.25;98540.53;5121873;28;20027;-68
2021/09/02 09:34:19;;;;;;;3.72;1.73;;;;;;;16.18;56.07;98574.28;5107732;28;20106;-64
2021/09/02 09:37:08;;;;;;;2.85;1.70;;;;;;;16.07;55.77;98571.50;5123112;28;20022;-63
2021/09/02 09:40:17;;;;;;;3.92;1.60;;;;;;;15.99;55.51;98534.56;5122506;28;20039;-63
2021/09/02 09:43:12;;;;;;;1.70;1.40;;;;;;;16.25;56.88;98589.56;5115497;28;20020;-63
2021/09/02 09:45:58;;;;;;;4.95;1.55;;;;;;;16.26;55.58;98575.56;5116436;28;20035;-63
2021/09/02 09:48:44;;;;;;;2.42;1.65;;;;;;;16.39;57.16;98582.53;5121429;28;20038;-63
2021/09/02 09:51:30;;;;;;;1.35;1.25;;;;;;;16.14;53.09;98583.22;5121843;28;20047;-63
2021/09/02 09:54:26;;;;;;;1.40;1.30;;;;;;;16.21;55.75;98554.97;5113796;27;20027;-63
2021/09/02 09:57:13;;;;;;;2.42;1.60;;;;;;;16.36;55.05;98579.28;5121517;28;20043;-64
2021/09/02 10:00:25;;;;;;;2.35;1.55;;;;;;;16.64;55.30;98591.41;5121238;28;20362;-63
2021/09/02 10:03:11;;;;;;;2.63;1.67;;;;;;;16.70;55.94;98588.44;5119231;27;20081;-62
2021/09/02 10:06:06;;;;;;;3.45;1.80;;;;;;;16.38;56.73;98541.66;5122569;28;20032;-62
2021/09/02 10:08:52;;;;;;;4.03;1.77;;;;;;;16.64;56.42;98591.41;5106321;27;20027;-63
2021/09/02 10:11:38;;;;;;;2.42;1.60;;;;;;;16.73;54.25;98603.91;5118544;28;20271;-63
2021/09/02 10:14:24;;;;;;;1.90;1.50;;;;;;;16.73;55.32;98590.00;5114361;27;20031;-63
2021/09/02 10:17:10;;;;;;;4.20;1.85;;;;;;;16.79;55.70;98588.75;5121766;28;20279;-64
2021/09/02 10:19:55;;;;;;;4.00;1.98;;;;;;;16.89;56.38;98595.94;5106271;28;20316;-62
2021/09/02 10:22:43;;;;;;;2.15;1.73;;;;;;;16.88;56.84;98603.91;5120417;28;20016;-64
2021/09/02 10:25:35;;;;;;;4.03;1.60;;;;;;;16.86;55.92;98605.72;5121172;28;20328;-62
2021/09/02 10:28:39;;;;;;;3.38;1.88;;;;;;;16.72;55.23;98610.06;5119196;28;20023;-62
2021/09/02 10:31:25;;;;;;;3.17;1.83;;;;;;;16.71;55.12;98597.09;5115887;28;20027;-62
2021/09/02 10:34:28;;;;;;;4.00;1.23;;;;;;;16.66;52.85;98607.88;5104957;28;20047;-63
2021/09/02 10:37:32;;;;;;;2.15;1.55;;;;;;;16.80;55.84;98613.97;5121120;28;20390;-63
2021/09/02 10:40:18;;;;;;;2.60;1.60;;;;;;;16.73;55.57;98611.75;5127717;27;20068;-63
2021/09/02 10:43:04;;;;;;;3.47;1.85;;;;;;;16.77;54.71;98601.09;5121099;28;20096;-63
2021/09/02 10:45:53;;;;;;;2.22;1.60;;;;;;;16.44;53.87;98565.75;5120845;28;20031;-63
2021/09/02 10:48:47;;;;;;;4.30;1.92;;;;;;;16.45;54.72;98559.59;5119528;28;20027;-63
2021/09/02 10:51:39;;;;;;;2.72;1.83;;;;;;;16.61;56.63;98554.19;5120484;28;20030;-63
2021/09/02 10:54:44;;;;;;;2.78;1.83;;;;;;;16.94;55.80;98608.72;5101164;28;20240;-62
2021/09/02 10:57:37;;;;;;;3.35;1.70;;;;;;;16.82;54.69;98596.44;5121844;28;20016;-63
2021/09/02 11:00:40;;;;;;;3.15;1.90;;;;;;;16.83;56.09;98606.78;5118241;28;20035;-63
2021/09/02 11:03:26;;;;;;;7.05;3.83;;;;;;;16.81;58.32;98605.19;5108267;28;20032;-64
2021/09/02 11:06:12;;;;;;;3.45;2.10;;;;;;;16.85;57.29;98611.91;5121525;28;20186;-65
2021/09/02 11:09:00;;;;;;;5.05;2.00;;;;;;;16.50;55.56;98579.25;5121307;28;20059;-65
2021/09/02 11:11:52;;;;;;;4.40;2.00;;;;;;;16.70;54.82;98611.97;5120417;28;20023;-65
2021/09/02 11:14:44;;;;;;;4.18;2.40;;;;;;;16.86;55.63;98608.34;5120350;28;20347;-64
2021/09/02 11:17:30;;;;;;;5.85;2.10;;;;;;;16.93;56.21;98604.44;5122253;28;20328;-62
2021/09/02 11:20:28;;;;;;;4.90;1.90;;;;;;;16.70;54.35;98617.19;5122208;28;20038;-63
2021/09/02 11:23:19;;;;;;;4.30;1.75;;;;;;;16.63;55.96;98615.06;5120671;28;20026;-64
2021/09/02 11:26:05;;;;;;;2.53;1.58;;;;;;;16.51;54.33;98619.28;5121083;28;20358;-63
2021/09/02 11:28:51;;;;;;;3.00;1.60;;;;;;;16.56;55.60;98614.63;5134531;27;20027;-63
2021/09/02 11:31:37;;;;;;;2.22;1.60;;;;;;;16.36;54.32;98640.22;5119026;28;20225;-63
2021/09/02 11:34:22;;;;;;;2.80;1.30;;;;;;;16.17;55.55;98650.13;5117636;28;20020;-62
2021/09/02 11:37:10;;;;;;;2.95;1.60;;;;;;;16.04;56.02;98656.09;5117691;28;20031;-63
2021/09/02 11:39:55;;;;;;;3.85;2.00;;;;;;;16.08;54.55;98664.59;5116814;28;20049;-63
2021/09/02 11:42:41;;;;;;;4.22;1.70;;;;;;;15.99;54.88;98678.19;5120174;28;20031;-63
2021/09/02 11:45:31;;;;;;;3.10;1.83;;;;;;;15.54;56.96;98637.28;5120716;28;20034;-63
2021/09/02 11:48:17;;;;;;;3.20;1.80;;;;;;;15.44;60.67;98687.50;5104433;28;20095;-63
2021/09/02 11:51:03;;;;;;;3.53;2.08;;;;;;;15.34;63.86;98684.56;5120492;28;20061;-64
2021/09/02 11:54:07;;;;;;;2.80;2.03;;;;;;;15.02;67.02;98711.53;5122103;28;20222;-64
2021/09/02 11:56:53;;;;;;;4.03;1.95;;;;;;;14.57;68.74;98700.06;5115754;28;20030;-65
2021/09/02 11:59:49;;;;;;;3.03;1.88;;;;;;;14.56;69.69;98700.16;5114435;28;20087;-64
2021/09/02 12:02:45;;;;;;;3.28;2.33;;;;;;;14.53;68.51;98698.53;5117264;28;20050;-63
2021/09/02 12:05:38;;;;;;;3.67;2.22;;;;;;;14.41;71.96;98696.59;5123688;28;20912;-64
2021/09/02 12:08:25;;;;;;;3.95;2.45;;;;;;;14.25;73.87;98689.59;5124283;28;20053;-64
2021/09/02 12:11:11;;;;;;;3.50;2.38;;;;;;;14.10;72.93;98693.00;5122834;28;20035;-64
2021/09/02 12:14:17;;;;;;;4.03;2.22;;;;;;;14.08;75.36;98664.47;5121721;28;20019;-65
2021/09/02 12:17:06;;;;;;;3.97;2.30;;;;;;;13.97;74.89;98645.94;5124014;28;20035;-64
2021/09/02 12:19:55;;;;;;;4.28;2.22;;;;;;;14.15;75.42;98699.66;5124445;28;20031;-65
2021/09/02 12:22:41;;;;;;;1.98;1.73;;;;;;;14.19;74.79;98692.50;5123591;28;20031;-67
2021/09/02 12:25:27;;;;;;;2.90;2.00;;;;;;;14.26;73.99;98691.28;5124555;28;20046;-63
2021/09/02 12:28:13;;;;;;;2.20;1.80;;;;;;;14.45;74.17;98700.72;5123080;28;20091;-64
2021/09/02 12:31:13;;;;;;;5.30;1.95;;;;;;;14.20;76.06;98647.34;5123405;27;20377;-64
2021/09/02 12:34:08;;;;;;;6.40;3.70;;;;;;;14.31;76.33;98655.41;5123591;27;20228;-63
2021/09/02 12:36:59;;;;;;;5.78;2.40;;;;;;;14.58;75.19;98682.66;5122519;28;20105;-63
2021/09/02 12:39:52;;;;;;;3.65;2.70;;;;;;;14.37;75.05;98656.84;5123720;28;20035;-64
2021/09/02 12:42:38;;;;;;;5.75;2.17;;;;;;;14.72;73.39;98706.25;5117674;28;20582;-64
2021/09/02 12:45:27;;;;;;;4.43;2.20;;;;;;;14.64;72.92;98706.66;5123255;28;20020;-64
2021/09/02 12:48:18;;;;;;;2.85;1.90;;;;;;;14.70;75.37;98705.47;5117487;28;20197;-64
2021/09/02 12:51:04;;;;;;;2.28;1.88;;;;;;;14.77;73.04;98712.03;5123239;28;20023;-64
2021/09/02 12:53:58;;;;;;;2.35;1.70;;;;;;;14.37;74.53;98654.25;5108178;27;20031;-65
2021/09/02 12:56:44;;;;;;;4.15;2.10;;;;;;;14.66;74.62;98715.25;5117584;28;20262;-64
2021/09/02 12:59:29;;;;;;;2.35;1.50;;;;;;;14.68;68.90;98709.94;5119569;28;20023;-64
2021/09/02 13:02:15;;;;;;;2.38;1.48;;;;;;;14.63;71.08;98707.56;5114435;28;20023;-64
2021/09/02 13:05:01;;;;;;;2.00;1.40;;;;;;;14.63;71.64;98704.13;5123579;28;20031;-64
2021/09/02 13:07:55;;;;;;;2.35;1.83;;;;;;;14.33;71.90;98668.34;5122772;28;20090;-62
2021/09/02 13:10:41;;;;;;;2.75;1.50;;;;;;;14.56;73.69;98690.56;5123935;28;20032;-63